createdAt,value
2019-03-31T00:00:37.795Z,91
2019-03-31T00:05:37.806Z,91
2019-03-31T00:10:37.814Z,90
2019-03-31T00:15:37.818Z,90
2019-03-31T00:20:37.809Z,90
2019-03-31T00:25:37.847Z,90
2019-03-31T00:30:37.826Z,90
2019-03-31T00:35:37.816Z,90
2019-03-31T00:40:37.825Z,90
2019-03-31T00:45:37.798Z,90
2019-03-31T00:50:37.818Z,90
2019-03-31T00:55:37.823Z,90
2019-03-31T01:00:37.813Z,89
2019-03-31T01:05:37.819Z,90
2019-03-31T01:10:37.819Z,90
2019-03-31T01:15:37.815Z,90
2019-03-31T01:20:37.818Z,90
2019-03-31T01:25:37.824Z,90
2019-03-31T01:30:37.833Z,90
2019-03-31T01:35:37.822Z,90
2019-03-31T01:40:37.876Z,90
2019-03-31T01:45:37.829Z,90
2019-03-31T01:50:37.812Z,90
2019-03-31T01:55:37.831Z,90
2019-03-31T02:00:37.818Z,90
2019-03-31T02:05:37.867Z,89
2019-03-31T02:10:37.839Z,89
2019-03-31T02:15:37.825Z,89
2019-03-31T02:20:37.842Z,89
2019-03-31T02:25:37.828Z,89
2019-03-31T02:30:37.826Z,89
2019-03-31T02:35:37.872Z,88
2019-03-31T02:40:37.822Z,88
2019-03-31T02:45:37.823Z,88
2019-03-31T02:50:37.825Z,88
2019-03-31T02:55:37.823Z,88
2019-03-31T03:00:37.826Z,88
2019-03-31T03:05:37.841Z,88
2019-03-31T03:10:37.833Z,88
2019-03-31T03:15:37.817Z,88
2019-03-31T03:20:37.846Z,88
2019-03-31T03:25:54.426Z,88
2019-03-31T03:30:38.224Z,88
2019-03-31T03:35:37.855Z,88
2019-03-31T03:40:37.831Z,88
2019-03-31T03:45:37.832Z,88
2019-03-31T03:50:37.832Z,88
2019-03-31T03:55:37.832Z,88
2019-03-31T04:00:37.828Z,88
2019-03-31T04:05:37.839Z,88
2019-03-31T04:10:37.841Z,88
2019-03-31T04:15:37.832Z,88
2019-03-31T04:20:39.391Z,88
2019-03-31T04:25:37.863Z,88
2019-03-31T04:30:37.845Z,88
2019-03-31T04:35:37.870Z,88
2019-03-31T04:40:37.846Z,88
2019-03-31T04:45:37.860Z,88
2019-03-31T04:50:37.838Z,88
2019-03-31T04:55:37.840Z,88
2019-03-31T05:00:37.835Z,88
2019-03-31T05:05:37.840Z,88
2019-03-31T05:10:37.835Z,88
2019-03-31T05:15:37.846Z,88
2019-03-31T05:20:37.861Z,88
2019-03-31T05:25:37.854Z,89
2019-03-31T05:30:37.851Z,89
2019-03-31T05:35:37.857Z,90
2019-03-31T05:40:37.844Z,90
2019-03-31T05:45:37.870Z,91
2019-03-31T05:50:37.855Z,91
2019-03-31T05:55:37.849Z,91
2019-03-31T06:00:37.849Z,91
2019-03-31T06:05:37.855Z,91
2019-03-31T06:10:37.880Z,91
2019-03-31T06:15:37.861Z,91
2019-03-31T06:20:37.872Z,91
2019-03-31T06:25:37.892Z,91
2019-03-31T06:30:37.920Z,91
2019-03-31T06:35:37.856Z,91
2019-03-31T06:40:37.863Z,91
2019-03-31T06:45:37.865Z,91
2019-03-31T06:50:37.886Z,91
2019-03-31T06:55:37.881Z,91
2019-03-31T07:00:37.863Z,91
2019-03-31T07:05:37.954Z,91
2019-03-31T07:10:37.877Z,91
2019-03-31T07:15:37.865Z,91
2019-03-31T07:20:37.942Z,91
2019-03-31T07:25:37.885Z,91
2019-03-31T07:30:37.879Z,91
2019-03-31T07:35:39.001Z,91
2019-03-31T07:40:38.199Z,91
2019-03-31T07:45:37.892Z,91
2019-03-31T07:50:37.894Z,91
2019-03-31T07:55:37.883Z,91
2019-03-31T08:00:37.873Z,91
2019-03-31T08:05:37.913Z,91
2019-03-31T08:10:37.869Z,91
2019-03-31T08:15:37.898Z,91
2019-03-31T08:20:37.885Z,91
2019-03-31T08:25:37.895Z,91
2019-03-31T08:30:37.896Z,91
2019-03-31T08:35:46.977Z,91
2019-03-31T08:40:37.894Z,91
2019-03-31T08:45:37.931Z,91
2019-03-31T08:50:37.944Z,91
2019-03-31T08:55:37.922Z,91
2019-03-31T09:00:37.942Z,91
2019-03-31T09:05:37.929Z,91
2019-03-31T09:10:37.893Z,91
2019-03-31T09:15:37.893Z,91
2019-03-31T09:20:37.902Z,91
2019-03-31T09:25:37.938Z,91
2019-03-31T09:30:37.895Z,91
2019-03-31T09:35:37.899Z,91
2019-03-31T09:40:37.910Z,91
2019-03-31T09:45:37.923Z,91
2019-03-31T09:50:37.902Z,91
2019-03-31T09:55:37.908Z,91
2019-03-31T10:00:37.907Z,92
2019-03-31T10:05:37.911Z,92
2019-03-31T10:10:37.919Z,92
2019-03-31T10:15:37.911Z,93
2019-03-31T10:20:37.925Z,93
2019-03-31T10:25:37.915Z,93
2019-03-31T10:30:37.915Z,92
2019-03-31T10:35:37.917Z,92
2019-03-31T10:40:37.929Z,92
2019-03-31T10:45:37.908Z,92
2019-03-31T10:50:37.927Z,91
2019-03-31T10:55:37.943Z,91
2019-03-31T11:00:37.968Z,91
2019-03-31T11:05:37.925Z,91
2019-03-31T11:10:37.983Z,91
2019-03-31T11:15:37.933Z,91
2019-03-31T11:20:37.922Z,91
2019-03-31T11:25:37.943Z,91
2019-03-31T11:30:37.927Z,91
2019-03-31T11:35:37.933Z,91
2019-03-31T11:40:37.925Z,91
2019-03-31T11:45:37.935Z,91
2019-03-31T11:50:37.931Z,91
2019-03-31T11:55:37.953Z,91
2019-03-31T12:00:37.936Z,91
2019-03-31T12:05:37.927Z,91
2019-03-31T12:10:37.981Z,91
2019-03-31T12:15:37.971Z,91
2019-03-31T12:20:37.941Z,92
2019-03-31T12:25:37.995Z,92
2019-03-31T12:30:37.982Z,92
2019-03-31T12:35:37.978Z,92
2019-03-31T12:40:37.991Z,92
2019-03-31T12:45:37.997Z,92
2019-03-31T12:50:37.970Z,90
2019-03-31T12:55:37.986Z,88
2019-03-31T13:00:37.999Z,86
2019-03-31T13:05:37.978Z,82
2019-03-31T13:10:37.998Z,82
2019-03-31T13:15:37.986Z,82
2019-03-31T13:20:37.996Z,81
2019-03-31T13:25:37.993Z,82
2019-03-31T13:30:37.990Z,83
2019-03-31T13:35:37.987Z,82
2019-03-31T13:40:37.996Z,81
2019-03-31T13:45:37.999Z,83
2019-03-31T13:50:38.005Z,84
2019-03-31T13:55:38.005Z,84
2019-03-31T14:00:38.011Z,85
2019-03-31T14:05:38.014Z,87
2019-03-31T14:10:38.002Z,88
2019-03-31T14:15:38.016Z,89
2019-03-31T14:20:38.016Z,90
2019-03-31T14:25:37.995Z,89
2019-03-31T14:30:38.008Z,89
2019-03-31T14:35:38.329Z,88
2019-03-31T14:40:38.001Z,88
2019-03-31T14:45:37.997Z,86
2019-03-31T14:50:37.998Z,85
2019-03-31T14:55:37.999Z,85
2019-03-31T15:00:38.019Z,84
2019-03-31T15:05:37.969Z,84
2019-03-31T15:10:37.971Z,86
2019-03-31T15:15:37.966Z,88
2019-03-31T15:20:37.992Z,90
2019-03-31T15:25:37.983Z,91
2019-03-31T15:30:37.984Z,91
2019-03-31T15:35:38.127Z,90
2019-03-31T15:40:37.973Z,90
2019-03-31T15:45:37.980Z,88
2019-03-31T15:50:38.018Z,87
2019-03-31T15:55:38.013Z,87
2019-03-31T16:00:38.126Z,86
2019-03-31T16:05:38.034Z,85
2019-03-31T16:10:38.027Z,85
2019-03-31T16:15:38.135Z,87
2019-03-31T16:20:38.022Z,88
2019-03-31T16:25:38.104Z,88
2019-03-31T16:30:38.041Z,88
2019-03-31T16:35:38.019Z,88
2019-03-31T16:40:38.161Z,89
2019-03-31T16:45:38.023Z,90
2019-03-31T16:50:38.027Z,90
2019-03-31T16:55:38.041Z,90
2019-03-31T17:00:38.042Z,91
2019-03-31T17:05:38.034Z,91
2019-03-31T17:10:38.045Z,91
2019-03-31T17:15:38.026Z,91
2019-03-31T17:20:38.026Z,91
2019-03-31T17:25:38.040Z,91
2019-03-31T17:30:38.039Z,90
2019-03-31T17:35:38.158Z,90
2019-03-31T17:40:37.993Z,90
2019-03-31T17:45:38.049Z,89
2019-03-31T17:50:38.032Z,89
2019-03-31T17:55:38.017Z,89
2019-03-31T18:00:38.004Z,88
2019-03-31T18:05:38.008Z,88
2019-03-31T18:10:38.020Z,88
2019-03-31T18:15:38.006Z,88
2019-03-31T18:20:38.010Z,88
2019-03-31T18:25:38.002Z,88
2019-03-31T18:30:38.007Z,88
2019-03-31T18:35:38.036Z,88
2019-03-31T18:40:38.004Z,88
2019-03-31T18:45:38.037Z,88
2019-03-31T18:50:38.014Z,88
2019-03-31T18:55:38.005Z,88
2019-03-31T19:00:38.011Z,88
2019-03-31T19:05:38.019Z,88
2019-03-31T19:10:48.633Z,88
2019-03-31T19:15:38.013Z,88
2019-03-31T19:20:38.041Z,88
2019-03-31T19:25:38.083Z,88
2019-03-31T19:30:38.027Z,88
2019-03-31T19:35:38.023Z,88
2019-03-31T19:40:41.235Z,88
2019-03-31T19:45:38.027Z,88
2019-03-31T19:50:38.028Z,88
2019-03-31T19:55:38.022Z,88
2019-03-31T20:00:38.023Z,88
2019-03-31T20:05:38.041Z,88
2019-03-31T20:10:38.055Z,88
2019-03-31T20:15:38.023Z,88
2019-03-31T20:20:38.038Z,88
2019-03-31T20:25:38.030Z,88
2019-03-31T20:30:38.087Z,88
2019-03-31T20:35:38.032Z,88
2019-03-31T20:40:38.076Z,88
2019-03-31T20:45:38.034Z,88
2019-03-31T20:50:38.035Z,88
2019-03-31T20:55:38.042Z,88
2019-03-31T21:00:38.042Z,88
2019-03-31T21:05:38.071Z,88
2019-03-31T21:10:38.044Z,88
2019-03-31T21:15:38.072Z,88
2019-03-31T21:20:38.049Z,88
2019-03-31T21:25:38.104Z,88
2019-03-31T21:30:38.041Z,88
2019-03-31T21:35:38.063Z,88
2019-03-31T21:40:38.047Z,88
2019-03-31T21:45:38.142Z,88
2019-03-31T21:50:38.164Z,88
2019-03-31T21:55:38.045Z,88
2019-03-31T22:00:38.055Z,88
2019-03-31T22:05:38.248Z,88
2019-03-31T22:10:38.086Z,88
2019-03-31T22:15:38.071Z,88
2019-03-31T22:20:38.066Z,88
2019-03-31T22:25:38.060Z,88
2019-03-31T22:30:38.094Z,88
2019-03-31T22:35:38.078Z,88
2019-03-31T22:40:38.050Z,88
2019-03-31T22:45:38.083Z,88
2019-03-31T22:50:38.070Z,88
2019-03-31T22:55:38.057Z,88
2019-03-31T23:00:38.079Z,88
2019-03-31T23:05:38.065Z,88
2019-03-31T23:10:38.089Z,88
2019-03-31T23:15:38.083Z,88
2019-03-31T23:20:38.079Z,88
2019-03-31T23:25:38.063Z,88
2019-03-31T23:30:38.081Z,88
2019-03-31T23:35:38.062Z,88
2019-03-31T23:40:38.082Z,88
2019-03-31T23:55:38.161Z,88
